Norden-Norddeich Airport

EDWS · Baixa Saxônia, Alemanha

3 de outubro de 2022

Hora Código Clima Temp. Visibilidade Tecto Vento METAR/SPECI
13:55
V
17 °C 10 km+ - 290° 290° 6 kt METAR EHGG 031155Z AUTO 29006KT 250V340 9999 SCT027 17/10 Q1026 NOSIG
13:25
V
17 °C 10 km+ - 310° 310° 6 kt METAR EHGG 031125Z AUTO 31006KT 260V360 9999 NSC 17/10 Q1026 NOSIG
12:55
V
17 °C 10 km+ - 280° 280° 6 kt METAR EHGG 031055Z AUTO 28006KT 230V320 9999 NSC 17/10 Q1026 NOSIG
12:25
V
17 °C 10 km+ - 270° 270° 7 kt METAR EHGG 031025Z AUTO 27007KT 230V310 9999 NSC 17/10 Q1026 NOSIG
11:55
V
16 °C 10 km+ - 290° 290° 6 kt METAR EHGG 030955Z AUTO 29006KT 230V320 9999 SCT022 16/10 Q1026 NOSIG
11:25
V
16 °C 10 km+ - 280° 280° 7 kt METAR EHGG 030925Z AUTO 28007KT 240V310 9999 NSC 16/10 Q1026 NOSIG
10:55
V
16 °C 10 km+ - 280° 280° 4 kt METAR EHGG 030855Z AUTO 28004KT 230V330 9999 NSC 16/11 Q1026 NOSIG
10:25
V
14 °C 10 km+ - 270° 270° 5 kt METAR EHGG 030825Z AUTO 27005KT 240V320 9999 NSC 14/11 Q1026 NOSIG
09:55
V
13 °C 10 km+ - 270° 270° 5 kt METAR EHGG 030755Z AUTO 27005KT 240V310 9999 NSC 13/10 Q1026 NOSIG
09:25
V
12 °C 10 km+ - 250° 250° 3 kt METAR EHGG 030725Z AUTO 25003KT 220V280 9999 NCD 12/10 Q1025 NOSIG
08:55
V
10 °C 10 km+ - 260° 260° 3 kt METAR EHGG 030655Z AUTO 26003KT 9999 NCD 10/09 Q1025 NOSIG
08:25
V
8 °C 10 km+ - 230° 230° 3 kt METAR EHGG 030625Z AUTO 23003KT 9999 NCD 08/08 Q1025 NOSIG
07:55
V
6 °C 10 km+ - 250° 250° 3 kt METAR EHGG 030555Z AUTO 25003KT 9999 NCD 06/06 Q1025 NOSIG
07:25
V
9 °C 10 km+ - 260° 260° 5 kt METAR EHGG 030525Z AUTO 26005KT 9999 NCD 09/08 Q1024 NOSIG
06:55
V
10 °C 10 km+ 4.000 ft 260° 260° 5 kt METAR EHGG 030455Z AUTO 26005KT 9999 OVC040 10/09 Q1025 NOSIG
06:25
V
11 °C 10 km+ 4.000 ft 250° 250° 5 kt METAR EHGG 030425Z AUTO 25005KT 9999 OVC040 11/10 Q1024 NOSIG
05:55
V
11 °C 10 km+ 4.100 ft 260° 260° 4 kt METAR EHGG 030355Z AUTO 26004KT 9999 OVC041 11/10 Q1024
05:25
V
11 °C 10 km+ 4.000 ft 250° 250° 6 kt METAR EHGG 030325Z AUTO 25006KT 9999 OVC040 11/10 Q1024
04:55
V
10 °C 10 km+ 4.300 ft 260° 260° 5 kt METAR EHGG 030255Z AUTO 26005KT 9999 BKN043 10/09 Q1024
04:25
V
9 °C 10 km+ 4.500 ft 250° 250° 4 kt METAR EHGG 030225Z AUTO 25004KT 9999 OVC045 09/08 Q1024
03:55
V
11 °C 10 km+ 4.400 ft 260° 260° 6 kt METAR EHGG 030155Z AUTO 26006KT 9999 BKN044 11/09 Q1024
03:25
V
11 °C 10 km+ 4.300 ft 260° 260° 6 kt METAR EHGG 030125Z AUTO 26006KT 9999 OVC043 11/10 Q1024
02:55
V
10 °C 10 km+ 4.000 ft 250° 250° 5 kt METAR EHGG 030055Z AUTO 25005KT 9999 OVC040 10/09 Q1023
02:25
V
9 °C 10 km+ 4.200 ft 250° 250° 5 kt METAR EHGG 030025Z AUTO 25005KT 9999 OVC042/// 09/08 Q1023
01:55
V
8 °C 10 km+ - 250° 250° 5 kt METAR EHGG 022355Z AUTO 25005KT 9999 NCD 08/08 Q1023
01:25
V
9 °C 10 km+ - 260° 260° 5 kt METAR EHGG 022325Z AUTO 26005KT 9999 NCD 09/08 Q1023
00:55
V
9 °C 10 km+ - 260° 260° 6 kt METAR EHGG 022255Z AUTO 26006KT 9999 NCD 09/09 Q1023
00:25
V
9 °C 10 km+ - 250° 250° 6 kt METAR EHGG 022225Z AUTO 25006KT 9999 NCD 09/08 Q1023

2 de outubro de 2022

Hora Código Clima Temp. Visibilidade Tecto Vento METAR/SPECI
23:55
V
9 °C 10 km+ - 250° 250° 5 kt METAR EHGG 022155Z AUTO 25005KT 9999 NCD 09/08 Q1022
23:25
V
10 °C 10 km+ - 260° 260° 5 kt METAR EHGG 022125Z AUTO 26005KT 9999 NCD 10/09 Q1022
22:55
V
11 °C 10 km+ - 270° 270° 5 kt METAR EHGG 022055Z AUTO 27005KT 250V310 9999 NCD 11/09 Q1021 NOSIG
22:25
V
11 °C 10 km+ - 270° 270° 5 kt METAR EHGG 022025Z AUTO 27005KT 240V300 9999 FEW027 11/09 Q1021 NOSIG
21:55
V
11 °C 10 km+ - 260° 260° 5 kt METAR EHGG 021955Z AUTO 26005KT 230V300 9999 FEW023 11/09 Q1021 NOSIG
21:25
V
12 °C 10 km+ 3.900 ft 270° 270° 5 kt METAR EHGG 021925Z AUTO 27005KT 240V310 9999 FEW033 BKN039 OVC045 12/10 Q1021 NOSIG
20:55
V
12 °C 10 km+ - 270° 270° 5 kt METAR EHGG 021855Z AUTO 27005KT 230V300 9999 FEW047 12/10 Q1021 NOSIG
20:25
V
12 °C 10 km+ 4.200 ft 270° 270° 5 kt METAR EHGG 021825Z AUTO 27005KT 230V300 9999 BKN042 12/10 Q1020 NOSIG
19:55
V
13 °C 10 km+ - 280° 280° 7 kt METAR EHGG 021755Z AUTO 28007KT 240V320 9999 FEW043 13/10 Q1020 NOSIG
19:25
V
13 °C 10 km+ - 290° 290° 6 kt METAR EHGG 021725Z AUTO 29006KT 250V310 9999 FEW032 SCT039 13/10 Q1019 NOSIG
18:55
M
14 °C 10 km+ 2.300 ft 300° 300° 7 kt METAR EHGG 021655Z AUTO 30007KT 260V350 9999 BKN023 BKN027 BKN041 14/10 Q1019 NOSIG
18:25
V
15 °C 10 km+ 4.200 ft 310° 310° 8 kt METAR EHGG 021625Z AUTO 31008KT 270V330 9999 DZRA FEW023 SCT026 BKN042 15/11 Q1019 NOSIG
17:55
M
15 °C 10 km+ 2.400 ft 300° 300° 9 kt METAR EHGG 021555Z AUTO 30009KT 250V340 9999 BKN024 BKN040 15/10 Q1018 NOSIG
17:25
V
16 °C 10 km+ 4.600 ft 280° 280° 11 kt METAR EHGG 021525Z AUTO 28011KT 250V320 9999 FEW042 BKN046 16/10 Q1018 NOSIG
16:55
V
16 °C 10 km+ - 290° 290° 11 kt METAR EHGG 021455Z AUTO 29011KT 260V320 9999 NSC 16/10 Q1017 NOSIG
16:25
V
17 °C 10 km+ 4.200 ft 310° 310° 11 kt METAR EHGG 021425Z AUTO 31011KT 250V360 9999 FEW029 SCT035 BKN042 17/10 Q1017 NOSIG
15:55
V
17 °C 10 km+ - 320° 320° 11 kt METAR EHGG 021355Z AUTO 32011KT 270V010 9999 NSC 17/10 Q1017 NOSIG
15:25
V
16 °C 10 km+ - 280° 280° 12 kt METAR EHGG 021325Z AUTO 28012KT 240V310 9999 NCD 16/09 Q1017 NOSIG
14:55
V
17 °C 10 km+ - 290° 290° 12 kt METAR EHGG 021255Z AUTO 29012KT 230V330 9999 FEW035 17/10 Q1016 NOSIG
14:25
V
18 °C 10 km+ - 300° 300° 15 kt METAR EHGG 021225Z AUTO 30015KT 260V330 9999 FEW031 SCT043 18/10 Q1016 NOSIG
13:55
V
17 °C 10 km+ - 290° 290° 13 kt METAR EHGG 021155Z AUTO 29013KT 260V320 9999 FEW031 17/09 Q1016 NOSIG
13:25
V
17 °C 10 km+ - 290° 290° 11 kt METAR EHGG 021125Z AUTO 29011KT 240V330 9999 NCD 17/10 Q1015 NOSIG
12:55
V
17 °C 10 km+ - 300° 300° 12 kt METAR EHGG 021055Z AUTO 30012KT 260V010 9999 FEW024 17/11 Q1015 NOSIG
12:25
V
16 °C 10 km+ - 270° 270° 7 kt METAR EHGG 021025Z AUTO 27007KT 230V320 9999 NCD 16/12 Q1015 NOSIG
11:55
V
15 °C 10 km+ 4.600 ft 260° 260° 7 kt METAR EHGG 020955Z AUTO 26007KT 230V290 9999 FEW026 SCT030 BKN046 15/12 Q1015 NOSIG
11:25
V
15 °C 10 km+ - 270° 270° 7 kt METAR EHGG 020925Z AUTO 27007KT 230V310 9999 SCT038 15/13 Q1014 NOSIG
10:55
V
13 °C 10 km+ - 250° 250° 5 kt METAR EHGG 020855Z AUTO 25005KT 230V290 9999 -RA FEW015CB 13/12 Q1014 TEMPO 7000 SHRA FEW020CB
10:25
V
12 °C 10 km+ 3.100 ft 240° 240° 5 kt METAR EHGG 020825Z AUTO 24005KT 220V280 9999 -RA FEW015CB BKN031 BKN035 12/11 Q1014 RERA TEMPO 7000 SHRA FEW020CB
09:55
V
13 °C 10 km+ 3.600 ft 300° 300° 4 kt METAR EHGG 020755Z AUTO 30004KT 260V340 9999 SCT029 BKN036 OVC041 13/11 Q1013 TEMPO 7000 -SHRA FEW020CB
09:25
V
13 °C 10 km+ - 240° 240° 8 kt METAR EHGG 020725Z AUTO 24008KT 200V280 9999 NSC 13/11 Q1013 TEMPO 7000 -SHRA FEW020CB
08:55
V
12 °C 10 km+ - 230° 230° 8 kt METAR EHGG 020655Z AUTO 23008KT 9999 NSC 12/11 Q1013 TEMPO 7000 -SHRA FEW020CB
08:25
V
9 °C 10 km+ - 230° 230° 7 kt METAR EHGG 020625Z AUTO 23007KT 9999 NCD 09/09 Q1012 TEMPO 7000 -SHRA FEW020CB
07:55
V
8 °C 10 km+ - 230° 230° 7 kt METAR EHGG 020555Z AUTO 23007KT 9999 NCD 08/08 Q1012 TEMPO 7000 -SHRA FEW020CB
07:25
V
10 °C 10 km+ - 230° 230° 7 kt METAR EHGG 020525Z AUTO 23007KT 9999 NCD 10/09 Q1012 TEMPO 7000 -SHRA FEW020CB
06:55
V
10 °C 10 km+ - 230° 230° 9 kt METAR EHGG 020455Z AUTO 23009KT 9999 NCD 10/09 Q1011 TEMPO 7000 -SHRA FEW020CB
06:25
V
10 °C 10 km+ - 230° 230° 9 kt METAR EHGG 020425Z AUTO 23009KT 9999 NCD 10/09 Q1011 TEMPO 7000 -SHRA FEW020CB
05:55
V
11 °C 10 km+ - 230° 230° 9 kt METAR EHGG 020355Z AUTO 23009KT 9999 FEW030 SCT034 11/10 Q1011
05:25
V
11 °C 10 km+ 3.900 ft 230° 230° 9 kt METAR EHGG 020325Z AUTO 23009KT 9999 FEW030 SCT035 BKN039 11/10 Q1011
04:55
V
11 °C 10 km+ 3.900 ft 230° 230° 8 kt METAR EHGG 020255Z AUTO 23008KT 9999 FEW028 SCT031 BKN039 11/10 Q1011
04:25
V
11 °C 10 km+ - 210° 210° 9 kt METAR EHGG 020225Z AUTO 21009KT 170V230 9999 NSC 11/10 Q1011
03:55
V
9 °C 10 km+ - 230° 230° 7 kt METAR EHGG 020155Z AUTO 23007KT 9999 SCT029 09/09 Q1011
03:25
V
9 °C 10 km+ - 230° 230° 8 kt METAR EHGG 020125Z AUTO 23008KT 9999 NCD 09/09 Q1011
02:55
V
9 °C 10 km+ - 220° 220° 6 kt METAR EHGG 020055Z AUTO 22006KT 9999 NCD 09/09 Q1010
02:25
M
11 °C 10 km+ 2.900 ft Var Var 4 kt METAR EHGG 020025Z AUTO VRB04KT 9999 FEW015CB BKN029 BKN035 BKN046 11/11 Q1011
01:55
V
11 °C 10 km+ - 200° 200° 7 kt METAR EHGG 012355Z AUTO 20007KT 9999 TS FEW015CB 11/10 Q1010 REDZ
01:25
V
12 °C 10 km+ 3.500 ft 250° 250° 6 kt METAR EHGG 012325Z AUTO 25006KT 220V280 9999 -RA FEW015CB BKN035 OVC040 12/11 Q1010
00:55
V
12 °C 10 km+ - 220° 220° 10 kt METAR EHGG 012255Z AUTO 22010KT 9999 FEW017 12/10 Q1010
00:25
V
13 °C 10 km+ - 300° 300° 13 kt METAR EHGG 012225Z AUTO 30013KT 260V340 9999 -RA FEW011 SCT014 FEW015CB 13/11 Q1010 RETS

1 de outubro de 2022

Hora Código Clima Temp. Visibilidade Tecto Vento METAR/SPECI
23:55
V
11 °C 10 km+ - 230° 230° 8 kt METAR EHGG 012155Z AUTO 23008KT 9999 TS FEW015CB 11/09 Q1009
23:25
V
12 °C 10 km+ - 250° 250° 9 kt METAR EHGG 012125Z AUTO 25009KT 210V280 9999 FEW015CB 12/10 Q1009
22:55
V
11 °C 10 km+ - 220° 220° 8 kt METAR EHGG 012055Z AUTO 22008KT 9999 FEW015CB SCT039 11/10 Q1009 TEMPO 7000 SHRA SCT020CB
22:25
V
10 °C 10 km+ - 220° 220° 6 kt METAR EHGG 012025Z AUTO 22006KT 9999 FEW039 10/09 Q1009 NOSIG
21:55
V
10 °C 10 km+ - 220° 220° 8 kt METAR EHGG 011955Z AUTO 22008KT 9999 NSC 10/09 Q1008 NOSIG
21:25
V
10 °C 10 km+ - 230° 230° 8 kt METAR EHGG 011925Z AUTO 23008KT 9999 NCD 10/09 Q1008 NOSIG
20:55
V
11 °C 10 km+ - 230° 230° 7 kt METAR EHGG 011855Z AUTO 23007KT 9999 NCD 11/09 Q1008 NOSIG
20:25
V
12 °C 10 km+ - 240° 240° 8 kt METAR EHGG 011825Z AUTO 24008KT 210V270 9999 FEW029 12/09 Q1007 NOSIG
19:55
V
13 °C 10 km+ - 240° 240° 9 kt METAR EHGG 011755Z AUTO 24009KT 9999 NCD 13/10 Q1007 NOSIG
19:25
V
13 °C 10 km+ - 250° 250° 7 kt METAR EHGG 011725Z AUTO 25007KT 230V290 9999 NCD 13/10 Q1006 NOSIG
18:55
V
14 °C 10 km+ - 260° 260° 10 kt METAR EHGG 011655Z AUTO 26010KT 230V290 9999 NCD 14/10 Q1006 NOSIG
18:25
V
15 °C 10 km+ - 270° 270° 12 kt METAR EHGG 011625Z AUTO 27012KT 220V310 9999 NSC 15/10 Q1005 NOSIG
17:55
V
15 °C 10 km+ - 270° 270° 9 kt METAR EHGG 011555Z AUTO 27009KT 230V300 9999 SCT028 SCT035 15/11 Q1005 TEMPO 7000 SHRA FEW020CB
17:25
V
15 °C 10 km+ - 280° 280° 7 kt METAR EHGG 011525Z AUTO 28007KT 260V350 9999 NCD 15/11 Q1005 TEMPO 7000 SHRA FEW020CB
16:55
V
14 °C 10 km+ 3.200 ft 300° 300° 7 kt METAR EHGG 011455Z AUTO 30007KT 260V340 9999 -RA FEW024 SCT027 BKN032 14/11 Q1004 TEMPO 7000 SHRA FEW020CB
16:25
M
14 °C 10 km+ 2.300 ft 300° 300° 10 kt METAR EHGG 011425Z AUTO 30010KT 260V350 9999 -RA FEW015CB BKN023 BKN027 BKN031 14/11 Q1004 TEMPO 7000 SHRA FEW020CB
15:55
V
16 °C 10 km+ - 270° 270° 9 - 19 kt METAR EHGG 011355Z AUTO 27009G19KT 220V330 9999 FEW015CB 16/12 Q1003 RERA TEMPO 7000 SHRA FEW020CB
15:25
I
13 °C 2 km 2.700 ft 290° 290° 13 kt METAR EHGG 011325Z AUTO 29013KT 240V340 2000 +RA FEW015CB SCT023 BKN027 13/10 Q1003 TEMPO 7000 SHRA FEW020CB
14:55
M
16 °C 10 km+ 2.400 ft 280° 280° 12 kt METAR EHGG 011255Z AUTO 28012KT 240V330 9999 SCT020 BKN024 BKN028 16/11 Q1002 TEMPO 7000 SHRA FEW020CB
14:25
M
16 °C 10 km+ 2.700 ft 270° 270° 10 kt METAR EHGG 011225Z AUTO 27010KT 230V310 9999 -RA FEW015CB SCT022 BKN027 16/12 Q1002 TEMPO 7000 SHRA FEW020CB
13:55
M
16 °C 10 km+ 2.100 ft 260° 260° 9 kt METAR EHGG 011155Z AUTO 26009KT 220V300 9999 SCT015 SCT018 BKN021 16/13 Q1002 TEMPO 7000 SHRA FEW020CB
Dados mais antigos

Nós e terceiros acompanhamos seu comportamento na internet em nosso site com cookies. Se você continuar, nós assumimos que você concorda com nossa política de cookies. Saiba mais